sensor_id;sensor_type;location;lat;lon;timestamp;temperature;humidity
28460;DHT22;32528;45.712;9.192;2023-06-22T00:01:12;24.90;92.40
28460;DHT22;32528;45.712;9.192;2023-06-22T00:03:13;24.90;92.40
28460;DHT22;32528;45.712;9.192;2023-06-22T00:05:14;24.80;92.40
28460;DHT22;32528;45.712;9.192;2023-06-22T00:07:14;24.90;92.40
28460;DHT22;32528;45.712;9.192;2023-06-22T00:09:15;24.90;92.50
28460;DHT22;32528;45.712;9.192;2023-06-22T00:11:16;24.90;92.80
28460;DHT22;32528;45.712;9.192;2023-06-22T00:13:17;24.90;92.90
28460;DHT22;32528;45.712;9.192;2023-06-22T00:15:18;24.90;93.00
28460;DHT22;32528;45.712;9.192;2023-06-22T00:17:20;24.80;92.90
28460;DHT22;32528;45.712;9.192;2023-06-22T00:19:21;24.80;92.80
28460;DHT22;32528;45.712;9.192;2023-06-22T00:21:22;24.80;92.60
28460;DHT22;32528;45.712;9.192;2023-06-22T00:23:24;24.80;92.60
28460;DHT22;32528;45.712;9.192;2023-06-22T00:25:25;24.80;92.60
28460;DHT22;32528;45.712;9.192;2023-06-22T00:27:26;24.70;92.90
28460;DHT22;32528;45.712;9.192;2023-06-22T00:29:27;24.70;92.80
28460;DHT22;32528;45.712;9.192;2023-06-22T00:31:30;24.70;92.80
28460;DHT22;32528;45.712;9.192;2023-06-22T00:33:32;24.70;92.60
28460;DHT22;32528;45.712;9.192;2023-06-22T00:35:32;24.70;92.60
28460;DHT22;32528;45.712;9.192;2023-06-22T00:37:34;24.60;92.50
28460;DHT22;32528;45.712;9.192;2023-06-22T00:39:36;24.60;92.60
28460;DHT22;32528;45.712;9.192;2023-06-22T00:41:37;24.60;92.60
28460;DHT22;32528;45.712;9.192;2023-06-22T00:43:38;24.60;92.80
28460;DHT22;32528;45.712;9.192;2023-06-22T00:45:42;24.60;92.80
28460;DHT22;32528;45.712;9.192;2023-06-22T00:47:44;24.60;92.80
28460;DHT22;32528;45.712;9.192;2023-06-22T00:49:47;24.60;92.90
28460;DHT22;32528;45.712;9.192;2023-06-22T00:51:48;24.60;93.00
28460;DHT22;32528;45.712;9.192;2023-06-22T00:53:50;24.50;93.10
28460;DHT22;32528;45.712;9.192;2023-06-22T00:55:52;24.50;93.20
28460;DHT22;32528;45.712;9.192;2023-06-22T00:57:54;24.40;93.10
28460;DHT22;32528;45.712;9.192;2023-06-22T00:59:57;24.40;93.30
28460;DHT22;32528;45.712;9.192;2023-06-22T01:01:59;24.40;93.40
28460;DHT22;32528;45.712;9.192;2023-06-22T01:04:00;24.50;93.40
28460;DHT22;32528;45.712;9.192;2023-06-22T01:06:12;24.50;93.40
28460;DHT22;32528;45.712;9.192;2023-06-22T01:08:34;24.50;93.40
28460;DHT22;32528;45.712;9.192;2023-06-22T01:12:52;24.40;93.60
28460;DHT22;32528;45.712;9.192;2023-06-22T01:15:33;24.40;93.80
28460;DHT22;32528;45.712;9.192;2023-06-22T01:17:40;24.30;93.90
28460;DHT22;32528;45.712;9.192;2023-06-22T01:21:56;24.10;94.20
28460;DHT22;32528;45.712;9.192;2023-06-22T01:24:24;24.10;94.40
28460;DHT22;32528;45.712;9.192;2023-06-22T01:28:50;24.20;94.40
28460;DHT22;32528;45.712;9.192;2023-06-22T01:30:53;24.20;94.50
28460;DHT22;32528;45.712;9.192;2023-06-22T01:33:06;24.20;94.60
28460;DHT22;32528;45.712;9.192;2023-06-22T01:35:08;24.20;94.60
28460;DHT22;32528;45.712;9.192;2023-06-22T01:37:11;24.30;94.60
28460;DHT22;32528;45.712;9.192;2023-06-22T01:39:12;24.30;94.60
28460;DHT22;32528;45.712;9.192;2023-06-22T01:41:15;24.30;94.70
28460;DHT22;32528;45.712;9.192;2023-06-22T01:43:16;24.30;94.80
28460;DHT22;32528;45.712;9.192;2023-06-22T01:45:18;24.20;94.90
28460;DHT22;32528;45.712;9.192;2023-06-22T01:47:20;24.10;95.00
28460;DHT22;32528;45.712;9.192;2023-06-22T01:49:22;24.10;95.20
28460;DHT22;32528;45.712;9.192;2023-06-22T01:51:24;24.10;95.40
28460;DHT22;32528;45.712;9.192;2023-06-22T01:53:25;24.10;95.50
28460;DHT22;32528;45.712;9.192;2023-06-22T01:55:26;24.10;95.70
28460;DHT22;32528;45.712;9.192;2023-06-22T01:57:27;24.00;95.60
28460;DHT22;32528;45.712;9.192;2023-06-22T01:59:29;24.00;95.70
28460;DHT22;32528;45.712;9.192;2023-06-22T02:01:38;23.90;95.90
28460;DHT22;32528;45.712;9.192;2023-06-22T02:03:46;23.90;96.00
28460;DHT22;32528;45.712;9.192;2023-06-22T02:05:53;23.90;96.10
28460;DHT22;32528;45.712;9.192;2023-06-22T02:08:06;23.90;96.20
28460;DHT22;32528;45.712;9.192;2023-06-22T02:10:08;23.90;96.10
28460;DHT22;32528;45.712;9.192;2023-06-22T02:12:11;23.90;96.20
28460;DHT22;32528;45.712;9.192;2023-06-22T02:14:13;23.90;96.30
28460;DHT22;32528;45.712;9.192;2023-06-22T02:16:14;23.90;96.30
28460;DHT22;32528;45.712;9.192;2023-06-22T02:18:16;23.90;96.20
28460;DHT22;32528;45.712;9.192;2023-06-22T02:20:17;23.90;96.20
28460;DHT22;32528;45.712;9.192;2023-06-22T02:22:18;23.90;96.30
28460;DHT22;32528;45.712;9.192;2023-06-22T02:24:20;23.90;96.40
28460;DHT22;32528;45.712;9.192;2023-06-22T02:26:24;23.90;96.40
28460;DHT22;32528;45.712;9.192;2023-06-22T02:28:28;23.90;96.70
28460;DHT22;32528;45.712;9.192;2023-06-22T02:30:29;23.80;96.80
28460;DHT22;32528;45.712;9.192;2023-06-22T02:32:29;23.80;96.80
28460;DHT22;32528;45.712;9.192;2023-06-22T02:34:31;23.80;97.00
28460;DHT22;32528;45.712;9.192;2023-06-22T02:36:34;23.90;97.40
28460;DHT22;32528;45.712;9.192;2023-06-22T02:38:35;23.80;97.00
28460;DHT22;32528;45.712;9.192;2023-06-22T02:40:36;23.80;97.00
28460;DHT22;32528;45.712;9.192;2023-06-22T02:42:39;23.80;97.00
28460;DHT22;32528;45.712;9.192;2023-06-22T02:44:40;23.80;97.00
28460;DHT22;32528;45.712;9.192;2023-06-22T02:46:41;23.80;96.80
28460;DHT22;32528;45.712;9.192;2023-06-22T02:48:42;23.90;96.60
28460;DHT22;32528;45.712;9.192;2023-06-22T02:50:43;23.90;96.80
28460;DHT22;32528;45.712;9.192;2023-06-22T02:52:44;23.90;96.90
28460;DHT22;32528;45.712;9.192;2023-06-22T02:54:46;23.90;96.80
28460;DHT22;32528;45.712;9.192;2023-06-22T02:56:48;24.00;96.60
28460;DHT22;32528;45.712;9.192;2023-06-22T02:58:48;24.00;96.20
28460;DHT22;32528;45.712;9.192;2023-06-22T03:00:50;24.00;96.10
28460;DHT22;32528;45.712;9.192;2023-06-22T03:02:53;24.00;96.20
28460;DHT22;32528;45.712;9.192;2023-06-22T03:04:54;24.00;96.20
28460;DHT22;32528;45.712;9.192;2023-06-22T03:06:55;24.10;96.20
28460;DHT22;32528;45.712;9.192;2023-06-22T03:09:00;24.10;96.20
28460;DHT22;32528;45.712;9.192;2023-06-22T03:11:02;24.10;96.40
28460;DHT22;32528;45.712;9.192;2023-06-22T03:13:02;24.10;96.50
28460;DHT22;32528;45.712;9.192;2023-06-22T03:15:10;24.10;96.40
28460;DHT22;32528;45.712;9.192;2023-06-22T03:17:11;24.10;96.50
28460;DHT22;32528;45.712;9.192;2023-06-22T03:19:12;24.10;96.30
28460;DHT22;32528;45.712;9.192;2023-06-22T03:21:15;24.20;96.30
28460;DHT22;32528;45.712;9.192;2023-06-22T03:23:17;24.10;96.30
28460;DHT22;32528;45.712;9.192;2023-06-22T03:25:18;24.20;96.30
28460;DHT22;32528;45.712;9.192;2023-06-22T03:27:22;24.10;96.50
28460;DHT22;32528;45.712;9.192;2023-06-22T03:29:24;24.00;96.60
28460;DHT22;32528;45.712;9.192;2023-06-22T03:31:26;24.00;96.80
28460;DHT22;32528;45.712;9.192;2023-06-22T03:33:27;24.00;96.70
28460;DHT22;32528;45.712;9.192;2023-06-22T03:35:27;24.10;96.60
28460;DHT22;32528;45.712;9.192;2023-06-22T03:37:30;24.10;96.70
28460;DHT22;32528;45.712;9.192;2023-06-22T03:39:31;24.10;96.70
28460;DHT22;32528;45.712;9.192;2023-06-22T03:41:33;24.10;96.70
28460;DHT22;32528;45.712;9.192;2023-06-22T03:43:33;24.10;96.70
28460;DHT22;32528;45.712;9.192;2023-06-22T03:45:34;24.10;96.80
28460;DHT22;32528;45.712;9.192;2023-06-22T03:47:35;24.10;96.80
28460;DHT22;32528;45.712;9.192;2023-06-22T03:49:37;24.10;96.80
28460;DHT22;32528;45.712;9.192;2023-06-22T03:51:38;24.10;96.90
28460;DHT22;32528;45.712;9.192;2023-06-22T03:53:40;24.10;97.20
28460;DHT22;32528;45.712;9.192;2023-06-22T03:55:49;24.10;97.20
28460;DHT22;32528;45.712;9.192;2023-06-22T03:57:50;24.10;97.40
28460;DHT22;32528;45.712;9.192;2023-06-22T03:59:51;23.90;97.90
28460;DHT22;32528;45.712;9.192;2023-06-22T04:01:52;23.90;97.80
28460;DHT22;32528;45.712;9.192;2023-06-22T04:03:52;23.90;97.60
28460;DHT22;32528;45.712;9.192;2023-06-22T04:05:53;23.90;97.90
28460;DHT22;32528;45.712;9.192;2023-06-22T04:07:54;23.90;97.80
28460;DHT22;32528;45.712;9.192;2023-06-22T04:09:54;24.00;97.70
28460;DHT22;32528;45.712;9.192;2023-06-22T04:11:55;24.10;97.60
28460;DHT22;32528;45.712;9.192;2023-06-22T04:13:56;24.10;97.80
28460;DHT22;32528;45.712;9.192;2023-06-22T04:15:56;24.00;97.70
28460;DHT22;32528;45.712;9.192;2023-06-22T04:17:57;24.10;97.90
28460;DHT22;32528;45.712;9.192;2023-06-22T04:19:58;24.10;97.90
28460;DHT22;32528;45.712;9.192;2023-06-22T04:21:59;24.00;97.90
28460;DHT22;32528;45.712;9.192;2023-06-22T04:23:59;24.00;98.00
28460;DHT22;32528;45.712;9.192;2023-06-22T04:26:00;24.10;97.90
28460;DHT22;32528;45.712;9.192;2023-06-22T04:28:01;24.10;97.80
28460;DHT22;32528;45.712;9.192;2023-06-22T04:30:04;24.10;97.50
28460;DHT22;32528;45.712;9.192;2023-06-22T04:32:05;24.10;97.40
28460;DHT22;32528;45.712;9.192;2023-06-22T04:34:07;24.20;97.70
28460;DHT22;32528;45.712;9.192;2023-06-22T04:36:08;24.10;97.80
28460;DHT22;32528;45.712;9.192;2023-06-22T04:38:08;24.20;97.90
28460;DHT22;32528;45.712;9.192;2023-06-22T04:40:09;24.20;97.90
28460;DHT22;32528;45.712;9.192;2023-06-22T04:42:12;24.20;97.90
28460;DHT22;32528;45.712;9.192;2023-06-22T04:44:13;24.20;97.70
28460;DHT22;32528;45.712;9.192;2023-06-22T04:46:14;24.10;97.10
28460;DHT22;32528;45.712;9.192;2023-06-22T04:48:15;24.20;97.10
28460;DHT22;32528;45.712;9.192;2023-06-22T04:50:16;24.30;97.40
28460;DHT22;32528;45.712;9.192;2023-06-22T04:52:18;24.30;97.30
28460;DHT22;32528;45.712;9.192;2023-06-22T04:54:20;24.40;97.00
28460;DHT22;32528;45.712;9.192;2023-06-22T04:56:21;24.40;96.80
28460;DHT22;32528;45.712;9.192;2023-06-22T04:58:22;24.50;97.00
28460;DHT22;32528;45.712;9.192;2023-06-22T05:00:23;24.50;97.10
28460;DHT22;32528;45.712;9.192;2023-06-22T05:02:24;24.60;96.70
28460;DHT22;32528;45.712;9.192;2023-06-22T05:04:29;24.60;96.40
28460;DHT22;32528;45.712;9.192;2023-06-22T05:06:32;24.60;96.20
28460;DHT22;32528;45.712;9.192;2023-06-22T05:08:32;24.60;96.30
28460;DHT22;32528;45.712;9.192;2023-06-22T05:10:34;24.60;96.20
28460;DHT22;32528;45.712;9.192;2023-06-22T05:12:34;24.60;96.30
28460;DHT22;32528;45.712;9.192;2023-06-22T05:14:35;24.70;96.30
28460;DHT22;32528;45.712;9.192;2023-06-22T05:16:36;24.70;96.50
28460;DHT22;32528;45.712;9.192;2023-06-22T05:18:37;24.80;96.50
28460;DHT22;32528;45.712;9.192;2023-06-22T05:20:38;24.80;96.40
28460;DHT22;32528;45.712;9.192;2023-06-22T05:22:39;24.90;96.60
28460;DHT22;32528;45.712;9.192;2023-06-22T05:24:40;25.00;96.40
28460;DHT22;32528;45.712;9.192;2023-06-22T05:26:41;25.00;96.40
28460;DHT22;32528;45.712;9.192;2023-06-22T05:28:42;25.00;96.50
28460;DHT22;32528;45.712;9.192;2023-06-22T05:30:47;25.10;96.60
28460;DHT22;32528;45.712;9.192;2023-06-22T05:32:47;25.10;96.60
28460;DHT22;32528;45.712;9.192;2023-06-22T05:34:50;25.10;96.70
28460;DHT22;32528;45.712;9.192;2023-06-22T05:36:51;25.10;97.20
28460;DHT22;32528;45.712;9.192;2023-06-22T05:38:52;25.00;97.40
28460;DHT22;32528;45.712;9.192;2023-06-22T05:40:53;24.90;97.20
28460;DHT22;32528;45.712;9.192;2023-06-22T05:42:54;24.90;97.00
28460;DHT22;32528;45.712;9.192;2023-06-22T05:44:54;24.90;97.30
28460;DHT22;32528;45.712;9.192;2023-06-22T05:46:56;25.00;96.80
28460;DHT22;32528;45.712;9.192;2023-06-22T05:48:56;25.00;96.60
28460;DHT22;32528;45.712;9.192;2023-06-22T05:50:57;25.20;96.60
28460;DHT22;32528;45.712;9.192;2023-06-22T05:52:58;25.20;96.90
28460;DHT22;32528;45.712;9.192;2023-06-22T05:54:59;25.30;97.00
28460;DHT22;32528;45.712;9.192;2023-06-22T05:56:59;25.40;96.40
28460;DHT22;32528;45.712;9.192;2023-06-22T05:59:00;25.50;95.90
28460;DHT22;32528;45.712;9.192;2023-06-22T06:01:01;25.70;95.90
28460;DHT22;32528;45.712;9.192;2023-06-22T06:03:02;25.90;96.00
28460;DHT22;32528;45.712;9.192;2023-06-22T06:05:04;26.00;96.40
28460;DHT22;32528;45.712;9.192;2023-06-22T06:07:05;26.20;96.20
28460;DHT22;32528;45.712;9.192;2023-06-22T06:09:06;26.30;95.70
28460;DHT22;32528;45.712;9.192;2023-06-22T06:11:08;26.50;95.20
28460;DHT22;32528;45.712;9.192;2023-06-22T06:13:08;26.60;94.80
28460;DHT22;32528;45.712;9.192;2023-06-22T06:15:09;26.70;94.50
28460;DHT22;32528;45.712;9.192;2023-06-22T06:17:10;26.90;94.40
28460;DHT22;32528;45.712;9.192;2023-06-22T06:19:11;27.00;94.40
28460;DHT22;32528;45.712;9.192;2023-06-22T06:21:12;27.20;94.20
28460;DHT22;32528;45.712;9.192;2023-06-22T06:23:13;27.30;93.90
28460;DHT22;32528;45.712;9.192;2023-06-22T06:25:13;27.40;93.70
28460;DHT22;32528;45.712;9.192;2023-06-22T06:27:19;27.40;93.40
28460;DHT22;32528;45.712;9.192;2023-06-22T06:29:19;27.40;93.20
28460;DHT22;32528;45.712;9.192;2023-06-22T06:31:21;27.40;93.30
28460;DHT22;32528;45.712;9.192;2023-06-22T06:33:21;27.50;93.20
28460;DHT22;32528;45.712;9.192;2023-06-22T06:35:22;27.50;93.40
28460;DHT22;32528;45.712;9.192;2023-06-22T06:37:23;27.40;93.00
28460;DHT22;32528;45.712;9.192;2023-06-22T06:39:25;27.40;93.40
28460;DHT22;32528;45.712;9.192;2023-06-22T06:41:25;27.40;93.00
28460;DHT22;32528;45.712;9.192;2023-06-22T06:43:26;27.40;93.40
28460;DHT22;32528;45.712;9.192;2023-06-22T06:45:27;27.40;93.50
28460;DHT22;32528;45.712;9.192;2023-06-22T06:47:29;27.50;93.60
28460;DHT22;32528;45.712;9.192;2023-06-22T06:49:30;27.60;93.40
28460;DHT22;32528;45.712;9.192;2023-06-22T06:51:31;27.80;93.20
28460;DHT22;32528;45.712;9.192;2023-06-22T06:53:31;27.90;93.10
28460;DHT22;32528;45.712;9.192;2023-06-22T06:55:33;27.90;92.20
28460;DHT22;32528;45.712;9.192;2023-06-22T06:57:34;28.10;93.00
28460;DHT22;32528;45.712;9.192;2023-06-22T06:59:36;28.10;92.90
28460;DHT22;32528;45.712;9.192;2023-06-22T07:01:36;28.10;92.00
28460;DHT22;32528;45.712;9.192;2023-06-22T07:03:37;28.10;92.30
28460;DHT22;32528;45.712;9.192;2023-06-22T07:05:38;28.20;92.10
28460;DHT22;32528;45.712;9.192;2023-06-22T07:07:39;28.30;91.30
28460;DHT22;32528;45.712;9.192;2023-06-22T07:09:39;28.40;91.00
28460;DHT22;32528;45.712;9.192;2023-06-22T07:11:41;28.60;90.80
28460;DHT22;32528;45.712;9.192;2023-06-22T07:13:42;28.60;90.60
28460;DHT22;32528;45.712;9.192;2023-06-22T07:15:43;28.80;90.30
28460;DHT22;32528;45.712;9.192;2023-06-22T07:17:44;28.80;89.50
28460;DHT22;32528;45.712;9.192;2023-06-22T07:19:45;28.90;88.20
28460;DHT22;32528;45.712;9.192;2023-06-22T07:21:45;28.90;89.70
28460;DHT22;32528;45.712;9.192;2023-06-22T07:23:46;29.00;88.80
28460;DHT22;32528;45.712;9.192;2023-06-22T07:25:47;29.10;89.10
28460;DHT22;32528;45.712;9.192;2023-06-22T07:28:04;29.10;88.20
28460;DHT22;32528;45.712;9.192;2023-06-22T07:30:06;29.20;87.90
28460;DHT22;32528;45.712;9.192;2023-06-22T07:32:07;29.20;89.00
28460;DHT22;32528;45.712;9.192;2023-06-22T07:34:07;29.30;89.30
28460;DHT22;32528;45.712;9.192;2023-06-22T07:36:08;29.40;89.00
28460;DHT22;32528;45.712;9.192;2023-06-22T07:38:09;29.50;88.80
28460;DHT22;32528;45.712;9.192;2023-06-22T07:40:12;29.60;89.20
28460;DHT22;32528;45.712;9.192;2023-06-22T07:42:13;29.70;88.10
28460;DHT22;32528;45.712;9.192;2023-06-22T07:44:19;29.80;87.20
28460;DHT22;32528;45.712;9.192;2023-06-22T07:46:20;29.90;87.50
28460;DHT22;32528;45.712;9.192;2023-06-22T07:48:21;30.10;87.80
28460;DHT22;32528;45.712;9.192;2023-06-22T07:50:22;30.10;85.80
28460;DHT22;32528;45.712;9.192;2023-06-22T07:52:24;30.10;84.90
28460;DHT22;32528;45.712;9.192;2023-06-22T07:54:26;30.10;85.40
28460;DHT22;32528;45.712;9.192;2023-06-22T07:56:26;30.10;84.20
28460;DHT22;32528;45.712;9.192;2023-06-22T07:58:27;30.20;84.70
28460;DHT22;32528;45.712;9.192;2023-06-22T08:00:29;30.30;85.10
28460;DHT22;32528;45.712;9.192;2023-06-22T08:02:30;30.20;84.00
28460;DHT22;32528;45.712;9.192;2023-06-22T08:04:31;30.20;85.40
28460;DHT22;32528;45.712;9.192;2023-06-22T08:06:34;30.20;86.30
28460;DHT22;32528;45.712;9.192;2023-06-22T08:08:38;30.20;86.00
28460;DHT22;32528;45.712;9.192;2023-06-22T08:10:39;30.20;84.80
28460;DHT22;32528;45.712;9.192;2023-06-22T08:12:40;30.20;85.10
28460;DHT22;32528;45.712;9.192;2023-06-22T08:14:42;30.30;85.00
28460;DHT22;32528;45.712;9.192;2023-06-22T08:16:45;30.30;85.40
28460;DHT22;32528;45.712;9.192;2023-06-22T08:18:46;30.30;85.70
28460;DHT22;32528;45.712;9.192;2023-06-22T08:20:47;30.40;86.20
28460;DHT22;32528;45.712;9.192;2023-06-22T08:22:48;30.40;83.30
28460;DHT22;32528;45.712;9.192;2023-06-22T08:24:49;30.40;85.00
28460;DHT22;32528;45.712;9.192;2023-06-22T08:26:51;30.50;84.90
28460;DHT22;32528;45.712;9.192;2023-06-22T08:28:52;30.50;84.60
28460;DHT22;32528;45.712;9.192;2023-06-22T08:30:53;30.50;84.80
28460;DHT22;32528;45.712;9.192;2023-06-22T08:32:56;30.50;83.50
28460;DHT22;32528;45.712;9.192;2023-06-22T08:34:57;30.60;83.00
28460;DHT22;32528;45.712;9.192;2023-06-22T08:36:58;30.80;81.20
28460;DHT22;32528;45.712;9.192;2023-06-22T08:38:59;30.80;80.10
28460;DHT22;32528;45.712;9.192;2023-06-22T08:41:01;30.90;80.50
28460;DHT22;32528;45.712;9.192;2023-06-22T08:43:02;30.90;82.40
28460;DHT22;32528;45.712;9.192;2023-06-22T08:45:03;30.90;82.10
28460;DHT22;32528;45.712;9.192;2023-06-22T08:47:04;30.90;82.40
28460;DHT22;32528;45.712;9.192;2023-06-22T08:49:05;31.00;82.30
28460;DHT22;32528;45.712;9.192;2023-06-22T08:51:06;31.00;83.00
28460;DHT22;32528;45.712;9.192;2023-06-22T08:53:07;31.10;82.70
28460;DHT22;32528;45.712;9.192;2023-06-22T08:55:08;31.10;83.40
28460;DHT22;32528;45.712;9.192;2023-06-22T08:57:11;31.10;82.60
28460;DHT22;32528;45.712;9.192;2023-06-22T08:59:11;31.20;82.40
28460;DHT22;32528;45.712;9.192;2023-06-22T09:01:12;31.10;81.10
28460;DHT22;32528;45.712;9.192;2023-06-22T09:03:15;31.10;80.60
28460;DHT22;32528;45.712;9.192;2023-06-22T09:05:16;31.10;80.70
28460;DHT22;32528;45.712;9.192;2023-06-22T09:07:17;31.10;79.30
28460;DHT22;32528;45.712;9.192;2023-06-22T09:09:22;31.20;80.60
28460;DHT22;32528;45.712;9.192;2023-06-22T09:11:23;31.10;81.40
28460;DHT22;32528;45.712;9.192;2023-06-22T09:13:24;31.10;82.60
28460;DHT22;32528;45.712;9.192;2023-06-22T09:15:25;31.20;81.30
28460;DHT22;32528;45.712;9.192;2023-06-22T09:17:26;31.10;82.10
28460;DHT22;32528;45.712;9.192;2023-06-22T09:19:27;31.20;79.80
28460;DHT22;32528;45.712;9.192;2023-06-22T09:21:28;31.30;79.00
28460;DHT22;32528;45.712;9.192;2023-06-22T09:23:29;31.40;79.20
28460;DHT22;32528;45.712;9.192;2023-06-22T09:25:31;31.30;78.60
28460;DHT22;32528;45.712;9.192;2023-06-22T09:27:32;31.40;78.30
28460;DHT22;32528;45.712;9.192;2023-06-22T09:29:33;31.50;78.20
28460;DHT22;32528;45.712;9.192;2023-06-22T09:31:35;31.40;79.00
28460;DHT22;32528;45.712;9.192;2023-06-22T09:33:36;31.30;79.00
28460;DHT22;32528;45.712;9.192;2023-06-22T09:35:38;31.30;78.00
28460;DHT22;32528;45.712;9.192;2023-06-22T09:37:40;31.30;76.80
28460;DHT22;32528;45.712;9.192;2023-06-22T09:39:41;31.40;77.00
28460;DHT22;32528;45.712;9.192;2023-06-22T09:41:42;31.40;76.40
28460;DHT22;32528;45.712;9.192;2023-06-22T09:43:42;31.40;75.50
28460;DHT22;32528;45.712;9.192;2023-06-22T09:45:43;31.40;77.00
28460;DHT22;32528;45.712;9.192;2023-06-22T09:47:44;31.40;77.60
28460;DHT22;32528;45.712;9.192;2023-06-22T09:49:45;31.40;76.60
28460;DHT22;32528;45.712;9.192;2023-06-22T09:51:46;31.40;75.80
28460;DHT22;32528;45.712;9.192;2023-06-22T09:53:47;31.60;75.90
28460;DHT22;32528;45.712;9.192;2023-06-22T09:55:48;31.60;76.00
28460;DHT22;32528;45.712;9.192;2023-06-22T09:57:48;31.70;76.10
28460;DHT22;32528;45.712;9.192;2023-06-22T09:59:49;31.70;74.50
28460;DHT22;32528;45.712;9.192;2023-06-22T10:01:50;31.80;76.10
28460;DHT22;32528;45.712;9.192;2023-06-22T10:03:52;31.80;74.70
28460;DHT22;32528;45.712;9.192;2023-06-22T10:05:56;31.70;74.70
28460;DHT22;32528;45.712;9.192;2023-06-22T10:07:57;31.60;73.50
28460;DHT22;32528;45.712;9.192;2023-06-22T10:09:58;31.50;72.80
28460;DHT22;32528;45.712;9.192;2023-06-22T10:11:59;31.60;74.90
28460;DHT22;32528;45.712;9.192;2023-06-22T10:14:00;31.70;75.10
28460;DHT22;32528;45.712;9.192;2023-06-22T10:16:01;31.80;73.60
28460;DHT22;32528;45.712;9.192;2023-06-22T10:18:02;31.90;73.20
28460;DHT22;32528;45.712;9.192;2023-06-22T10:20:03;31.90;72.10
28460;DHT22;32528;45.712;9.192;2023-06-22T10:22:12;32.00;72.20
28460;DHT22;32528;45.712;9.192;2023-06-22T10:24:12;32.10;71.20
28460;DHT22;32528;45.712;9.192;2023-06-22T10:26:13;32.10;71.10
28460;DHT22;32528;45.712;9.192;2023-06-22T10:28:14;32.10;70.60
28460;DHT22;32528;45.712;9.192;2023-06-22T10:30:15;32.10;70.90
28460;DHT22;32528;45.712;9.192;2023-06-22T10:32:16;32.10;71.10
28460;DHT22;32528;45.712;9.192;2023-06-22T10:34:16;32.00;71.40
28460;DHT22;32528;45.712;9.192;2023-06-22T10:36:17;31.90;70.00
28460;DHT22;32528;45.712;9.192;2023-06-22T10:38:18;31.80;70.20
28460;DHT22;32528;45.712;9.192;2023-06-22T10:40:19;31.60;71.20
28460;DHT22;32528;45.712;9.192;2023-06-22T10:42:19;31.70;70.10
28460;DHT22;32528;45.712;9.192;2023-06-22T10:44:20;31.80;70.50
28460;DHT22;32528;45.712;9.192;2023-06-22T10:46:21;32.00;70.40
28460;DHT22;32528;45.712;9.192;2023-06-22T10:48:21;32.10;69.10
28460;DHT22;32528;45.712;9.192;2023-06-22T10:50:22;32.20;68.90
28460;DHT22;32528;45.712;9.192;2023-06-22T10:52:24;32.30;68.30
28460;DHT22;32528;45.712;9.192;2023-06-22T10:54:25;32.20;69.20
28460;DHT22;32528;45.712;9.192;2023-06-22T10:56:26;32.20;69.10
28460;DHT22;32528;45.712;9.192;2023-06-22T10:58:27;32.30;69.60
28460;DHT22;32528;45.712;9.192;2023-06-22T11:00:28;32.20;68.50
28460;DHT22;32528;45.712;9.192;2023-06-22T11:02:29;32.10;69.80
28460;DHT22;32528;45.712;9.192;2023-06-22T11:04:29;32.20;70.00
28460;DHT22;32528;45.712;9.192;2023-06-22T11:06:30;32.20;69.00
28460;DHT22;32528;45.712;9.192;2023-06-22T11:08:31;32.50;72.60
28460;DHT22;32528;45.712;9.192;2023-06-22T11:10:31;32.70;71.90
28460;DHT22;32528;45.712;9.192;2023-06-22T11:12:32;32.70;68.60
28460;DHT22;32528;45.712;9.192;2023-06-22T11:14:35;32.80;68.20
28460;DHT22;32528;45.712;9.192;2023-06-22T11:16:35;32.80;66.60
28460;DHT22;32528;45.712;9.192;2023-06-22T11:18:37;32.90;66.90
28460;DHT22;32528;45.712;9.192;2023-06-22T11:20:38;33.00;67.70
28460;DHT22;32528;45.712;9.192;2023-06-22T11:22:40;33.00;66.30
28460;DHT22;32528;45.712;9.192;2023-06-22T11:24:41;33.10;66.40
28460;DHT22;32528;45.712;9.192;2023-06-22T11:26:42;33.20;66.70
28460;DHT22;32528;45.712;9.192;2023-06-22T11:28:43;33.20;65.60
28460;DHT22;32528;45.712;9.192;2023-06-22T11:30:43;33.20;65.50
28460;DHT22;32528;45.712;9.192;2023-06-22T11:32:44;33.30;65.60
28460;DHT22;32528;45.712;9.192;2023-06-22T11:34:46;33.30;63.50
28460;DHT22;32528;45.712;9.192;2023-06-22T11:36:46;33.40;63.60
28460;DHT22;32528;45.712;9.192;2023-06-22T11:38:48;33.40;65.70
28460;DHT22;32528;45.712;9.192;2023-06-22T11:40:49;33.40;64.10
28460;DHT22;32528;45.712;9.192;2023-06-22T11:42:51;33.50;62.30
28460;DHT22;32528;45.712;9.192;2023-06-22T11:44:52;33.50;62.80
28460;DHT22;32528;45.712;9.192;2023-06-22T11:46:52;33.60;63.30
28460;DHT22;32528;45.712;9.192;2023-06-22T11:48:53;33.70;63.60
28460;DHT22;32528;45.712;9.192;2023-06-22T11:50:54;33.80;66.50
28460;DHT22;32528;45.712;9.192;2023-06-22T11:52:56;33.90;64.80
28460;DHT22;32528;45.712;9.192;2023-06-22T11:54:58;33.90;65.70
28460;DHT22;32528;45.712;9.192;2023-06-22T11:56:59;34.00;66.50
28460;DHT22;32528;45.712;9.192;2023-06-22T11:59:00;34.10;66.50
28460;DHT22;32528;45.712;9.192;2023-06-22T12:01:01;34.20;65.90
28460;DHT22;32528;45.712;9.192;2023-06-22T12:03:01;34.20;62.90
28460;DHT22;32528;45.712;9.192;2023-06-22T12:05:02;34.40;64.80
28460;DHT22;32528;45.712;9.192;2023-06-22T12:07:05;34.50;64.20
28460;DHT22;32528;45.712;9.192;2023-06-22T12:09:06;34.70;64.60
28460;DHT22;32528;45.712;9.192;2023-06-22T12:11:07;34.80;63.70
28460;DHT22;32528;45.712;9.192;2023-06-22T12:13:08;34.90;62.10
28460;DHT22;32528;45.712;9.192;2023-06-22T12:15:10;35.00;63.20
28460;DHT22;32528;45.712;9.192;2023-06-22T12:17:11;35.10;61.10
28460;DHT22;32528;45.712;9.192;2023-06-22T12:19:13;35.10;61.50
28460;DHT22;32528;45.712;9.192;2023-06-22T12:21:14;35.10;59.30
28460;DHT22;32528;45.712;9.192;2023-06-22T12:23:15;35.20;61.40
28460;DHT22;32528;45.712;9.192;2023-06-22T12:25:16;35.20;62.30
28460;DHT22;32528;45.712;9.192;2023-06-22T12:27:18;35.20;61.10
28460;DHT22;32528;45.712;9.192;2023-06-22T12:29:18;35.00;61.30
28460;DHT22;32528;45.712;9.192;2023-06-22T12:31:19;35.20;62.40
28460;DHT22;32528;45.712;9.192;2023-06-22T12:33:20;35.40;61.90
28460;DHT22;32528;45.712;9.192;2023-06-22T12:35:22;35.40;61.50
28460;DHT22;32528;45.712;9.192;2023-06-22T12:37:23;35.30;61.30
28460;DHT22;32528;45.712;9.192;2023-06-22T12:39:24;35.50;61.70
28460;DHT22;32528;45.712;9.192;2023-06-22T12:41:24;35.60;60.40
28460;DHT22;32528;45.712;9.192;2023-06-22T12:43:25;35.60;59.20
28460;DHT22;32528;45.712;9.192;2023-06-22T12:45:26;35.70;60.00
28460;DHT22;32528;45.712;9.192;2023-06-22T12:47:29;35.70;58.80
28460;DHT22;32528;45.712;9.192;2023-06-22T12:49:30;35.70;59.80
28460;DHT22;32528;45.712;9.192;2023-06-22T12:51:30;35.80;59.50
28460;DHT22;32528;45.712;9.192;2023-06-22T12:53:31;35.90;59.00
28460;DHT22;32528;45.712;9.192;2023-06-22T12:55:32;36.10;59.00